Etusivu
METAR-TAF:

METAR-TAF

Lentoasemat :

Volk Field Air National Guard Base

Camp Douglas, Wisconsin, Yhdysvallat

Leveyspiiri: 43-56N, Pituuspiiri: 090-16W, korkeus merenpinnasta: 277 m

Tämänhetkinen sää

Tämä raportti tehtiin 1 tunti ja 3 minuuttia sitten, kello 11.56 UTC
tyyntä
Lämpötila 10°C
Kosteus 100%
Ilmanpaine 1019 hPa
Näkyvyys: 16.1 km
Hajonneita pilviä 6000 ft:n korkeudessa
Hajonneita pilviä 25000 ft:n korkeudessa

METAR: KVOK 051156Z 00000KT 10SM BKN060 BKN250 10/10 A3009 RMK AO2A SLP193 52008

Aika: 07:59 (12:59 UTC)

Sääennuste

Tämä raportti tehtiin 3 tuntia ja 59 minuuttia sitten, kello 09.00 UTC
Ennuste voimassa 05. päivästä klo 09 UTC - 06. päivään klo 15 UTC
Tuuli 6 kn eri suunnista
Näkyvyys 10 km tai enemmän
Hajanaisia pilviä 3500 ft:n korkeudessa
Ajoittain
05. päivästä klo 09 UTC - 05. päivään klo 11 UTC
Näkyvyys: 1600 m
utua

TAF: KVOK 050900Z 0509/0615 VRB06KT 9999 SCT035 QNH3000INS TEMPO 0509/0511 1600 BR TX23/0521Z TN09/0509Z

Säähavainnot ja -ennusteet yli 4000 lentoasemalta (METAR- ja TAF-raportit).

Käytössä olevat sääasemat on merkitty karttaan keltaisilla ja punaisilla pisteillä.

Aseta hiiri pisteen päälle nähdäksesi sääaseman nimen.

Klikkaa sitten nähdäksesi säähavainnot ja -ennusteet.

Kartan vaihtaminen: klikkaa mustalla rastilla varustettuja vihreitä pisteitä, niin voit zoomata sisään; viivalla varustettua vihreää pistettä, niin voit zoomata ulos tai vihreitä nuolia, niin pääset viereisille kartoille.


METAR-TAF: